François Lagadeuc

François Lagadeuc

Statistiques 2026

  • Courses courues : 319
  • Nb de victoires : 46
  • Nb de places : 87
  • Écart gagnant : 13
  • Réussite à la gagne : 14%
  • Réussite à la place : 27%
Musique : 5m 4a 0m 0a 0a Da Da Da 5a 2a 3a 2a 8a 1a 8a 1a 5m Da
DateRangCatégorieAlloc.Dist.HippodromeChevalRed. KmSpé.
25/05/23 1 Trot 27 000€ 2 850m Laval Hommage de Tillard 1'13"2 Attelé
15/06/23 D Trot 27 000€ 2 850m Laval Hurricane Wind Attelé
15/06/23 3 Trot 31 000€ 2 850m Laval Hyper Fast 1'14"0 Attelé
15/06/23 D Trot 24 000€ 2 850m Laval In Your Eyes Attelé
15/06/23 4 Trot 24 000€ 2 850m Laval Isa du Pressoir 1'15"2 Attelé
15/06/23 D Trot 21 000€ 2 850m Laval Jupiter Turgot Attelé
15/06/23 3 Trot 21 000€ 2 850m Laval Jocaste Dairpet 1'14"9 Attelé
15/06/23 7 Trot 21 000€ 2 850m Laval Jackson Kily 1'16"3 Monté
17/02/21 1 Trot 18 000€ 2 850m Laval Galehaut America 1'16"7 Attelé
05/03/21 2 Trot 18 000€ 2 875m Laval Galehaut America 1'15"0 Attelé
05/03/21 1 Trot 32 000€ 2 850m Laval Enzo d'Essarts 1'14"6 Attelé lire

Progressivement rapproché au bout de la ligne opposée, a su se montrer nettement le plus fort dans la phase finale.

05/03/21 1 Trot 18 000€ 2 850m Laval Galante de Tillard 1'15"6 Attelé
05/03/21 8 Trot 16 000€ 2 850m Laval Hilton de Lavau 1'20"7 Monté
17/03/21 4 Trot 49 000€ 2 850m Laval Eire d'helios 1'13"2 Attelé lire

Tout de suite à la pointe du combat, a très bien tenu sa partie jusqu'au bout.

17/03/21 6 Trot 20 000€ 2 850m Laval Gaston du Roc 1"15'3 Attelé lire

Après avoir figuré au sein du peloton, a conclu correctement.

17/03/21 9 Trot 27 000€ 2 850m Laval Dutiful 1'16"0 Attelé lire

N'a joué aucun rôle utile.

29/04/21 0 Trot 16 000€ 2 850m Laval Ideale Nep Attelé
29/04/21 D Trot 36 000€ 2 850m Laval Eire d'helios Attelé lire

Longtemps au sein du peloton, s'est désunie à la sortie du tournant final alors quelle progressait.

07/05/21 3 Trot 20 000€ 2 850m Laval Galehaut America 1'14"7 Attelé
07/05/21 5 Trot 27 000€ 2 850m Laval Effet 1'14"7 Monté
07/05/21 1 Trot 31 000€ 2 850m Laval Enzo d'Essarts 1'14"9 Attelé
28/05/21 7 Trot 18 000€ 2 850m Laval Hermes du Don 1'15"0 Attelé
28/05/21 3 Trot 20 000€ 2 850m Laval Girolata Quick 1'16"8 Attelé
28/05/21 D Trot 23 000€ 2 850m Laval Fantasia Love Attelé
28/05/21 9 Trot 31 000€ 2 850m Laval Duc de Christal 1'14"7 Attelé
09/06/21 4 Trot 20 000€ 2 850m Laval Isola Quick 1'16"3 Attelé
09/06/21 6 Trot 23 000€ 2 875m Laval Fashion Touch 1'14"1 Attelé
18/06/21 8 Trot 20 000€ 2 850m Laval Gela de Bellouet 1'16"1 Attelé
18/06/21 2 Trot 26 000€ 2 850m Laval Fee de Lunojo 1'14"8 Attelé
18/06/21 5 Trot 16 000€ 2 850m Laval Harlington 1'16"1 Attelé
18/06/21 7 Trot 16 000€ 2 850m Laval Happy Souveraine 1'16"9 Attelé
18/06/21 D Trot 18 000€ 2 850m Laval Infinity du Pont Attelé
01/07/21 9 Trot 16 000€ 2 850m Laval Infinity du Pont 1'18"3 Attelé
01/07/21 D Trot 18 000€ 2 850m Laval Gentleman Valiere Monté
01/07/21 1 Trot 23 000€ 2 850m Laval Guili Guili 1'14"2 Attelé
01/07/21 5 Trot 26 000€ 2 850m Laval Forbach 1'14"5 Attelé
29/08/21 1 Trot 15 000€ 2 850m Laval Hoche 1'14"5 Attelé
29/08/21 4 Trot 13 000€ 2 850m Laval Illusion des Baux 1'16"3 Attelé
29/08/21 5 Trot 26 000€ 2 850m Laval Carla du Houlme 1'14"5 Attelé
03/09/21 3 Trot 18 000€ 2 850m Laval Haystack Dairpet 1'15"5 Attelé
03/09/21 2 Trot 31 000€ 2 850m Laval Filoe de Jary 1'13"1 Monté
03/09/21 8 Trot 36 000€ 2 850m Laval Diablo d'herfraie 1'15"5 Attelé
03/09/21 D Trot 20 000€ 2 850m Laval Green Tower Attelé
03/09/21 9 Trot 18 000€ 2 850m Laval Horse du Hennequin 1'16"8 Attelé
10/09/21 1 Trot 15 000€ 2 850m Laval Its A Rocker Quick 1'16"1 Attelé
10/09/21 8 Trot 13 000€ 2 875m Laval Garou des Chaliers 1'16"4 Attelé
10/09/21 3 Trot 21 000€ 2 850m Laval Geisha Speed 1'15"0 Attelé
10/09/21 0 Trot 15 000€ 2 850m Laval Heather du Quenne Attelé
10/09/21 1 Trot 13 000€ 2 850m Laval Galisthene d'Ela 1'16"5 Attelé
10/09/21 5 Trot 13 000€ 2 850m Laval Gaetane du Vivier 1'15"9 Attelé